This is the latest recevied weather packets stored in our database for station/object LA9UTA-13. If no packets are shown the sender has not sent any weather packets the latest 10 day(s).
| Time | Temp. | Humidity | Pressure | Rain* | Wind** | Luminosity | Snow |
|---|---|---|---|---|---|---|---|
| 1777454282 | 13.33° C | 42% | 1029.5 hPa | 0 mm | - | 422 W/m² | - |
| 1777453083 | 14.44° C | 39% | 1029.4 hPa | 0 mm | - | 423 W/m² | - |
| 1777451882 | 12.22° C | 43% | 1029.6 hPa | 0 mm | - | 393 W/m² | - |
| 1777450682 | 13.89° C | 41% | 1029.5 hPa | 0 mm | - | 414 W/m² | - |
| 1777449482 | 13.33° C | 41% | 1029.5 hPa | 0 mm | - | 349 W/m² | - |
| 1777448282 | 14.44° C | 40% | 1029.4 hPa | 0 mm | - | 314 W/m² | - |
| 1777447082 | 10.56° C | 51% | 1029.8 hPa | 0 mm | - | 287 W/m² | - |
| 1777445884 | 11.11° C | 51% | 1030.8 hPa | 0 mm | - | 242 W/m² | - |
| 1777444682 | 10° C | 55% | 1029.8 hPa | 0 mm | - | 237 W/m² | - |
| 1777443482 | 9.44° C | 58% | 1029.9 hPa | 0 mm | - | 94 W/m² | - |
| 1777442282 | 7.78° C | 61% | 1030.1 hPa | 0 mm | - | 158 W/m² | - |
| 1777441082 | 8.33° C | 57% | 1030 hPa | 0 mm | - | 103 W/m² | - |
| 1777438683 | 2.78° C | 74% | 1030.6 hPa | 0 mm | - | 44 W/m² | - |
| 1777437482 | 1.67° C | 78% | 1030.7 hPa | 0 mm | - | 28 W/m² | - |
| 1777436282 | 1.67° C | 79% | 1030.7 hPa | 0 mm | - | 20 W/m² | - |
| 1777435082 | 1.67° C | 77% | 1030.7 hPa | 0 mm | - | 15 W/m² | - |
| 1777433882 | 2.22° C | 76% | 1030.6 hPa | 0 mm | - | 7 W/m² | - |
| 1777432682 | 1.67° C | 78% | 1030.7 hPa | 0 mm | - | 2 W/m² | - |
| 1777431482 | 2.22° C | 78% | 1030.6 hPa | 0 mm | - | 0 W/m² | - |
| 1777430282 | 2.22° C | 75% | 1030.6 hPa | 0 mm | - | 0 W/m² | - |
| 1777429082 | 3.33° C | 72% | 1030.5 hPa | 0 mm | - | 0 W/m² | - |
| 1777427882 | 2.78° C | 79% | 1030.6 hPa | 0 mm | - | 0 W/m² | - |
| 1777426683 | 3.33° C | 77% | 1030.5 hPa | 0 mm | - | 0 W/m² | - |
| 1777425482 | 3.89° C | 78% | 1030.5 hPa | 0 mm | - | 0 W/m² | - |
| 1777424283 | 4.44° C | 77% | 1030.4 hPa | 0 mm | - | 0 W/m² | - |
* Rain latest hour (hover to see other rain measurements)
** Current wind speed in m/s (hover to see current wind gust speed)